Wilford Hall USAF Hosp, Texas
Current Conditions -  °F | °C
As of 3:03 AM on Friday 19 Dec 2014 (Local Time) from KSKF Reporting Station
Overcast Overcast  
Wind Chill: 54°   Ceiling: 900
Heat Index: 54°   Visibility: 10mi
Dew Point: 52°   Wind: 12mph
Humidity: 94%   Direction: 20°NNE
Pressure: 30"   Gusts: NA
Location:  29.3853°N, 98.6099°W
Report Text: KSKF 190903Z AUTO 02010KT 10SM BKN009 OVC016 12/11 A3000 RMK AO2 CIG 009V016 BKN V SCT $
Loading
Personal Weather Stations






























Interactive Weather Map New forecast layout! Learn more

10-Day Weather Forecast

Advertisements
Track Severe Weather on mobile